Time;durP1;ratioP1;P1;durP2;ratioP2;P2;SDS_P1;SDS_P2;PMS_P1;PMS_P2;Temp;Humidity;BMP_temperature;BMP_pressure;BME280_temperature;BME280_humidity;BME280_pressure;Samples;Min_cycle;Max_cycle;Signal;HPM_P1;HPM_P2
2023/10/03 05:00:20;;;;;;;59.13;21.60;;;;;;;;;;5959186;23;20440;-68
2023/10/03 05:02:47;;;;;;;62.17;20.70;;;;;;;;;;4936491;29;20416;-69
2023/10/03 05:05:15;;;;;;;46.83;20.23;;;;;;;;;;4924830;29;20433;-67
2023/10/03 05:07:41;;;;;;;56.87;19.90;;;;;;;;;;4917269;29;20405;-69
2023/10/03 05:10:07;;;;;;;54.20;21.63;;;;;;;;;;4917259;29;20407;-69
2023/10/03 05:12:33;;;;;;;60.10;21.30;;;;;;;;;;4917251;29;20881;-68
2023/10/03 05:14:59;;;;;;;56.20;23.33;;;;;;;;;;4917465;29;20556;-69
2023/10/03 05:17:26;;;;;;;56.20;21.00;;;;;;;;;;4916977;29;20414;-69
2023/10/03 05:19:56;;;;;;;49.90;19.17;;;;;;;;;;4917259;29;20846;-70
2023/10/03 05:22:23;;;;;;;57.60;20.80;;;;;;;;;;4917124;29;20434;-67
2023/10/03 05:24:49;;;;;;;64.83;21.80;;;;;;;;;;4916886;29;20446;-68
2023/10/03 05:27:16;;;;;;;47.90;19.27;;;;;;;;;;4916715;29;20870;-68
2023/10/03 05:29:43;;;;;;;51.20;19.87;;;;;;;;;;4917055;29;20417;-68
2023/10/03 05:32:09;;;;;;;43.37;18.20;;;;;;;;;;4916941;29;20430;-69
2023/10/03 05:34:35;;;;;;;48.63;19.27;;;;;;;;;;4916705;29;20836;-68
2023/10/03 05:37:02;;;;;;;49.63;19.60;;;;;;;;;;4916533;29;20785;-68
2023/10/03 05:39:28;;;;;;;47.83;18.57;;;;;;;;;;4915705;29;20458;-68
2023/10/03 05:41:57;;;;;;;55.20;21.50;;;;;;;;;;4920255;29;20815;-68
2023/10/03 05:44:24;;;;;;;47.30;19.37;;;;;;;;;;4935838;29;20421;-68
2023/10/03 05:46:55;;;;;;;52.13;20.70;;;;;;;;;;4935474;29;20417;-68
2023/10/03 05:49:21;;;;;;;54.50;20.07;;;;;;;;;;4935709;29;20421;-69
2023/10/03 05:51:47;;;;;;;45.90;19.03;;;;;;;;;;4935533;29;20933;-69
2023/10/03 05:54:13;;;;;;;56.30;20.27;;;;;;;;;;4938082;29;20418;-69
2023/10/03 05:56:40;;;;;;;40.73;19.17;;;;;;;;;;4945585;29;20416;-68
2023/10/03 05:59:08;;;;;;;53.03;19.83;;;;;;;;;;4936140;29;20426;-69
2023/10/03 06:01:34;;;;;;;49.97;19.47;;;;;;;;;;4925322;29;20954;-69
2023/10/03 06:04:00;;;;;;;58.63;20.93;;;;;;;;;;4916637;29;20415;-69
2023/10/03 06:06:28;;;;;;;49.40;18.60;;;;;;;;;;4916184;29;20419;-69
2023/10/03 06:08:54;;;;;;;49.77;18.73;;;;;;;;;;4916899;29;20414;-69
2023/10/03 06:11:20;;;;;;;44.27;18.10;;;;;;;;;;4916235;29;20941;-69
2023/10/03 06:13:46;;;;;;;49.10;19.30;;;;;;;;;;4916419;29;20772;-69
2023/10/03 06:16:13;;;;;;;47.57;18.80;;;;;;;;;;4915819;29;20516;-69
2023/10/03 06:18:40;;;;;;;51.10;19.07;;;;;;;;;;4916315;29;20423;-69
2023/10/03 06:21:07;;;;;;;45.40;17.83;;;;;;;;;;4916525;29;20434;-70
2023/10/03 06:23:33;;;;;;;43.40;18.13;;;;;;;;;;4916220;29;20790;-70
2023/10/03 06:25:59;;;;;;;47.70;17.80;;;;;;;;;;4915892;29;20430;-70
2023/10/03 06:28:25;;;;;;;49.23;18.90;;;;;;;;;;4916252;29;20450;-70
2023/10/03 06:30:52;;;;;;;46.70;19.30;;;;;;;;;;4915975;29;20438;-70
2023/10/03 06:33:18;;;;;;;45.90;19.30;;;;;;;;;;4916002;29;20418;-70
2023/10/03 06:35:44;;;;;;;42.83;18.47;;;;;;;;;;4915298;29;20879;-70
2023/10/03 06:38:10;;;;;;;42.33;17.77;;;;;;;;;;4914396;29;20465;-70
2023/10/03 06:40:36;;;;;;;42.53;17.20;;;;;;;;;;4915723;29;20435;-70
2023/10/03 06:43:02;;;;;;;44.70;17.93;;;;;;;;;;4914624;29;20419;-70
2023/10/03 06:45:29;;;;;;;41.53;18.10;;;;;;;;;;4915837;29;20742;-70
2023/10/03 06:47:55;;;;;;;46.57;18.03;;;;;;;;;;4915710;29;20454;-70
2023/10/03 06:50:23;;;;;;;36.37;17.33;;;;;;;;;;4915669;29;20410;-68
2023/10/03 06:52:49;;;;;;;45.20;17.83;;;;;;;;;;4915789;29;20800;-70
2023/10/03 06:55:15;;;;;;;45.17;17.97;;;;;;;;;;4915649;29;20553;-70
2023/10/03 06:57:42;;;;;;;46.87;17.70;;;;;;;;;;4915711;29;20426;-70
2023/10/03 07:00:14;;;;;;;39.57;16.40;;;;;;;;;;4915628;29;20466;-70
2023/10/03 07:02:41;;;;;;;38.00;17.50;;;;;;;;;;4916397;29;20810;-70
2023/10/03 07:05:08;;;;;;;42.90;17.80;;;;;;;;;;4915577;29;20410;-71
2023/10/03 07:07:34;;;;;;;39.63;16.73;;;;;;;;;;4915381;29;20464;-71
2023/10/03 07:10:00;;;;;;;38.70;15.40;;;;;;;;;;4915500;29;20415;-71
2023/10/03 07:12:26;;;;;;;41.30;16.17;;;;;;;;;;4915572;29;20429;-68
2023/10/03 07:14:52;;;;;;;34.40;14.60;;;;;;;;;;4915374;29;20556;-68
2023/10/03 07:17:18;;;;;;;33.37;14.93;;;;;;;;;;4915177;29;20474;-70
2023/10/03 07:19:48;;;;;;;36.60;15.53;;;;;;;;;;4915325;29;20411;-69
2023/10/03 07:22:14;;;;;;;31.23;14.20;;;;;;;;;;4915291;29;20435;-69
2023/10/03 07:24:40;;;;;;;30.57;13.63;;;;;;;;;;4915751;29;20426;-69
2023/10/03 07:27:11;;;;;;;36.03;14.10;;;;;;;;;;4914360;29;20434;-69
2023/10/03 07:29:42;;;;;;;30.10;14.70;;;;;;;;;;4915564;29;20415;-69
2023/10/03 07:32:12;;;;;;;27.87;13.23;;;;;;;;;;4915276;29;20446;-69
2023/10/03 07:34:42;;;;;;;27.40;12.23;;;;;;;;;;4915442;29;20480;-68
2023/10/03 07:37:08;;;;;;;31.60;14.90;;;;;;;;;;4932381;29;20457;-68
2023/10/03 07:39:34;;;;;;;37.07;15.07;;;;;;;;;;4934780;29;20464;-72
2023/10/03 07:42:01;;;;;;;28.23;12.50;;;;;;;;;;4936865;29;20479;-72
2023/10/03 07:44:27;;;;;;;28.90;12.07;;;;;;;;;;4940786;29;20460;-71
2023/10/03 07:46:53;;;;;;;22.13;11.53;;;;;;;;;;4943805;28;20418;-72
2023/10/03 07:49:19;;;;;;;25.60;12.07;;;;;;;;;;4956829;29;20408;-72
2023/10/03 07:51:45;;;;;;;31.23;11.57;;;;;;;;;;4956981;28;20429;-72
2023/10/03 07:54:14;;;;;;;23.07;12.17;;;;;;;;;;4948116;29;20508;-71
2023/10/03 07:56:42;;;;;;;27.40;10.93;;;;;;;;;;4935790;29;20444;-72
2023/10/03 07:59:08;;;;;;;21.63;10.60;;;;;;;;;;4937554;29;20414;-72
2023/10/03 08:01:38;;;;;;;19.67;9.90;;;;;;;;;;4949913;29;21041;-73
2023/10/03 08:04:08;;;;;;;25.47;11.17;;;;;;;;;;4919408;29;20438;-73
2023/10/03 08:06:36;;;;;;;19.57;10.50;;;;;;;;;;4937367;29;20401;-73
2023/10/03 08:09:03;;;;;;;25.00;10.43;;;;;;;;;;4937671;29;20405;-73
2023/10/03 08:11:29;;;;;;;19.60;10.50;;;;;;;;;;4936240;29;20461;-74
2023/10/03 08:13:56;;;;;;;16.40;8.70;;;;;;;;;;4947813;29;20500;-74
2023/10/03 08:16:22;;;;;;;22.00;10.30;;;;;;;;;;4955951;29;20464;-74
2023/10/03 08:18:57;;;;;;;25.77;10.37;;;;;;;;;;4956517;29;20413;-74
2023/10/03 08:21:29;;;;;;;22.70;10.90;;;;;;;;;;4956430;28;20447;-74
2023/10/03 08:23:56;;;;;;;19.10;10.10;;;;;;;;;;4956302;29;20447;-74
2023/10/03 08:26:23;;;;;;;22.20;9.70;;;;;;;;;;4943691;29;20441;-74
2023/10/03 08:28:59;;;;;;;16.20;8.30;;;;;;;;;;4941755;29;20433;-74
2023/10/03 08:31:28;;;;;;;19.67;8.73;;;;;;;;;;4941810;29;20495;-74
2023/10/03 08:33:55;;;;;;;18.30;8.93;;;;;;;;;;4941248;29;20424;-74
2023/10/03 08:36:22;;;;;;;20.77;9.57;;;;;;;;;;4955823;28;20944;-74
2023/10/03 08:38:49;;;;;;;15.77;7.93;;;;;;;;;;4944705;28;21005;-73
2023/10/03 08:41:19;;;;;;;17.60;8.73;;;;;;;;;;4938223;29;20798;-75
2023/10/03 08:43:51;;;;;;;17.27;7.73;;;;;;;;;;4950148;28;20476;-74
2023/10/03 08:46:17;;;;;;;17.97;9.00;;;;;;;;;;4936467;29;20462;-72
2023/10/03 08:48:44;;;;;;;15.57;8.90;;;;;;;;;;4936708;29;20500;-72
2023/10/03 08:51:13;;;;;;;18.90;7.57;;;;;;;;;;4940993;29;20444;-75
2023/10/03 08:53:41;;;;;;;15.00;7.63;;;;;;;;;;4954603;29;20564;-72
2023/10/03 08:56:08;;;;;;;16.40;6.77;;;;;;;;;;4946059;29;20469;-74
2023/10/03 08:58:35;;;;;;;13.50;7.70;;;;;;;;;;4944302;29;20422;-71
2023/10/03 09:01:04;;;;;;;14.80;7.53;;;;;;;;;;4929947;29;20480;-71
2023/10/03 09:03:47;;;;;;;15.63;6.80;;;;;;;;;;4942938;29;20920;-73
2023/10/03 09:06:19;;;;;;;12.53;7.43;;;;;;;;;;4942862;29;20911;-70
2023/10/03 09:08:45;;;;;;;13.93;7.43;;;;;;;;;;4955627;28;20413;-70
2023/10/03 09:11:13;;;;;;;13.63;6.77;;;;;;;;;;4955489;29;20457;-71
2023/10/03 09:13:40;;;;;;;14.63;7.37;;;;;;;;;;4955581;28;20548;-70
2023/10/03 09:16:09;;;;;;;18.17;7.87;;;;;;;;;;4955136;29;20478;-70
2023/10/03 09:18:42;;;;;;;17.13;7.67;;;;;;;;;;4955431;29;20828;-70
2023/10/03 09:21:23;;;;;;;13.87;7.00;;;;;;;;;;4955217;29;20431;-69
2023/10/03 09:24:17;;;;;;;11.77;7.17;;;;;;;;;;4955450;28;20409;-70
2023/10/03 09:26:47;;;;;;;12.00;6.90;;;;;;;;;;4954906;28;20467;-70
2023/10/03 09:29:29;;;;;;;13.20;6.60;;;;;;;;;;4943747;29;20437;-71
2023/10/03 09:31:57;;;;;;;13.50;7.57;;;;;;;;;;4935755;29;20422;-70
2023/10/03 09:34:23;;;;;;;10.40;6.70;;;;;;;;;;4935531;29;20414;-71
2023/10/03 09:36:49;;;;;;;12.70;6.97;;;;;;;;;;4935387;29;20465;-70
2023/10/03 09:39:21;;;;;;;15.50;6.93;;;;;;;;;;4935688;29;20422;-70
2023/10/03 09:41:57;;;;;;;15.20;9.20;;;;;;;;;;4935833;29;20452;-72
2023/10/03 09:44:32;;;;;;;13.27;6.90;;;;;;;;;;4934585;29;20429;-72
2023/10/03 09:47:00;;;;;;;16.67;7.93;;;;;;;;;;4935620;29;20796;-71
2023/10/03 09:49:36;;;;;;;12.40;7.17;;;;;;;;;;4935639;29;20831;-70
2023/10/03 09:52:04;;;;;;;10.00;5.60;;;;;;;;;;4935487;29;20518;-70
2023/10/03 09:54:35;;;;;;;13.40;7.47;;;;;;;;;;4935467;29;20549;-70
2023/10/03 09:57:15;;;;;;;11.57;6.90;;;;;;;;;;4934798;29;20821;-70
2023/10/03 09:59:41;;;;;;;15.33;7.60;;;;;;;;;;4935512;29;20500;-69
2023/10/03 10:02:12;;;;;;;14.00;7.10;;;;;;;;;;4935192;29;20960;-71
2023/10/03 10:04:39;;;;;;;15.70;7.97;;;;;;;;;;4935427;29;20454;-71
2023/10/03 10:07:16;;;;;;;15.03;7.40;;;;;;;;;;4934653;29;20414;-72
2023/10/03 10:09:47;;;;;;;15.70;7.80;;;;;;;;;;4935174;29;20548;-70
2023/10/03 10:12:23;;;;;;;12.40;5.90;;;;;;;;;;4934032;29;20437;-72
2023/10/03 10:15:02;;;;;;;10.97;6.93;;;;;;;;;;4934947;29;20865;-72
2023/10/03 10:17:46;;;;;;;11.97;6.17;;;;;;;;;;4935013;29;20409;-71
2023/10/03 10:23:06;;;;;;;12.70;7.33;;;;;;;;;;4935027;29;20917;-71
2023/10/03 10:25:41;;;;;;;14.67;6.57;;;;;;;;;;4934807;29;20433;-72
2023/10/03 10:28:08;;;;;;;14.50;6.90;;;;;;;;;;4933679;29;20429;-73
2023/10/03 10:30:34;;;;;;;12.90;6.90;;;;;;;;;;4934743;29;20871;-73
2023/10/03 10:33:16;;;;;;;12.93;7.37;;;;;;;;;;4934904;29;20789;-72
2023/10/03 10:35:55;;;;;;;12.00;6.57;;;;;;;;;;4934516;29;20453;-72
2023/10/03 10:38:33;;;;;;;12.97;7.50;;;;;;;;;;4935058;29;20477;-72
2023/10/03 10:41:11;;;;;;;15.03;7.10;;;;;;;;;;4934757;29;20528;-72
2023/10/03 10:43:56;;;;;;;13.70;7.17;;;;;;;;;;4931060;29;20469;-71
2023/10/03 10:46:39;;;;;;;16.67;7.63;;;;;;;;;;4915365;29;20886;-70
2023/10/03 10:49:06;;;;;;;10.30;6.67;;;;;;;;;;4916059;29;20410;-69
2023/10/03 10:51:36;;;;;;;16.50;6.87;;;;;;;;;;4921667;29;20430;-71
2023/10/03 10:54:04;;;;;;;12.37;7.10;;;;;;;;;;4928550;29;20457;-72
2023/10/03 10:56:32;;;;;;;10.47;6.90;;;;;;;;;;4926721;29;20458;-70
2023/10/03 10:59:10;;;;;;;12.70;6.37;;;;;;;;;;4927673;29;20411;-72
2023/10/03 11:01:39;;;;;;;10.83;6.70;;;;;;;;;;4923742;29;20481;-71
2023/10/03 11:04:22;;;;;;;15.83;6.70;;;;;;;;;;4938021;29;20485;-71
2023/10/03 11:06:52;;;;;;;10.60;6.77;;;;;;;;;;4939842;29;20456;-70
2023/10/03 11:09:20;;;;;;;9.20;6.20;;;;;;;;;;4935594;29;20890;-72
2023/10/03 11:11:47;;;;;;;13.97;7.40;;;;;;;;;;4935225;29;20775;-72
2023/10/03 11:14:13;;;;;;;9.73;6.80;;;;;;;;;;4934888;29;20429;-72
2023/10/03 11:16:39;;;;;;;11.80;7.00;;;;;;;;;;4934256;29;20957;-73
2023/10/03 11:19:06;;;;;;;12.67;7.17;;;;;;;;;;4934735;29;20417;-72
2023/10/03 11:21:33;;;;;;;11.87;7.70;;;;;;;;;;4934253;29;20532;-73
2023/10/03 11:24:14;;;;;;;12.63;6.77;;;;;;;;;;4937681;29;20409;-72
2023/10/03 11:26:47;;;;;;;12.83;7.37;;;;;;;;;;4938092;29;20819;-72
2023/10/03 11:29:17;;;;;;;14.80;7.40;;;;;;;;;;4938020;29;20420;-72
2023/10/03 11:31:44;;;;;;;13.60;8.13;;;;;;;;;;4937866;29;20425;-73
2023/10/03 11:34:11;;;;;;;13.93;7.70;;;;;;;;;;4937912;29;20425;-72
2023/10/03 11:36:43;;;;;;;18.43;8.60;;;;;;;;;;4937603;29;20464;-72
2023/10/03 11:39:13;;;;;;;17.03;8.13;;;;;;;;;;4937945;29;20462;-72
2023/10/03 11:41:39;;;;;;;14.73;7.67;;;;;;;;;;4937809;29;20421;-73
2023/10/03 11:44:21;;;;;;;15.73;7.63;;;;;;;;;;4937451;29;20512;-73
2023/10/03 11:46:47;;;;;;;13.47;7.27;;;;;;;;;;4937444;29;20417;-72
2023/10/03 11:49:15;;;;;;;13.97;7.70;;;;;;;;;;4937249;29;20449;-72
2023/10/03 11:51:43;;;;;;;11.50;7.57;;;;;;;;;;4937656;29;20496;-73
2023/10/03 11:54:09;;;;;;;13.20;8.40;;;;;;;;;;4937727;29;20469;-71
2023/10/03 11:56:39;;;;;;;19.43;7.83;;;;;;;;;;4935815;29;20472;-72
2023/10/03 11:59:05;;;;;;;12.03;7.50;;;;;;;;;;4937495;29;20401;-72
2023/10/03 12:01:31;;;;;;;11.30;7.33;;;;;;;;;;4937183;29;20822;-72
2023/10/03 12:03:57;;;;;;;14.50;7.17;;;;;;;;;;4937597;29;20469;-72
2023/10/03 12:06:24;;;;;;;12.30;8.00;;;;;;;;;;4937319;29;20424;-72
2023/10/03 12:08:49;;;;;;;17.03;8.00;;;;;;;;;;4937059;29;21023;-73
2023/10/03 12:11:16;;;;;;;15.83;8.20;;;;;;;;;;4937426;29;20438;-73
2023/10/03 12:13:42;;;;;;;19.53;8.03;;;;;;;;;;4937263;29;20504;-73
2023/10/03 12:16:08;;;;;;;14.07;7.83;;;;;;;;;;4936846;29;20567;-73
2023/10/03 12:18:36;;;;;;;14.10;7.70;;;;;;;;;;4937220;29;20421;-72
2023/10/03 12:21:04;;;;;;;14.43;7.83;;;;;;;;;;4936909;29;20437;-73
2023/10/03 12:23:30;;;;;;;15.53;8.50;;;;;;;;;;4936976;29;20416;-73
2023/10/03 12:25:57;;;;;;;16.53;7.90;;;;;;;;;;4936699;29;20413;-72
2023/10/03 12:28:22;;;;;;;15.30;8.20;;;;;;;;;;4936981;29;20833;-73
2023/10/03 12:30:52;;;;;;;13.17;7.33;;;;;;;;;;4936727;29;20437;-73
2023/10/03 12:33:19;;;;;;;14.13;8.43;;;;;;;;;;4930363;29;20430;-72
2023/10/03 12:35:45;;;;;;;18.10;7.33;;;;;;;;;;4916703;29;20842;-72
2023/10/03 12:38:11;;;;;;;12.20;7.53;;;;;;;;;;4918317;29;20415;-73
2023/10/03 12:40:37;;;;;;;14.90;8.00;;;;;;;;;;4917776;29;20478;-73
2023/10/03 12:43:03;;;;;;;19.67;8.50;;;;;;;;;;4917783;29;20427;-74
2023/10/03 12:45:29;;;;;;;11.53;7.37;;;;;;;;;;4917805;29;20825;-74
2023/10/03 12:47:56;;;;;;;17.33;7.37;;;;;;;;;;4917687;29;20493;-73
2023/10/03 12:50:23;;;;;;;14.30;7.87;;;;;;;;;;4916762;29;20454;-72
2023/10/03 12:52:49;;;;;;;15.60;8.03;;;;;;;;;;4917745;29;20894;-72
2023/10/03 12:55:17;;;;;;;14.27;7.70;;;;;;;;;;4917517;29;20466;-73
2023/10/03 12:57:45;;;;;;;10.93;6.70;;;;;;;;;;4917589;29;20518;-73
2023/10/03 13:00:12;;;;;;;14.63;7.80;;;;;;;;;;4917829;29;20437;-73
2023/10/03 13:02:39;;;;;;;14.17;8.43;;;;;;;;;;4928265;29;20440;-73
2023/10/03 13:05:06;;;;;;;19.93;8.10;;;;;;;;;;4936377;29;20413;-72
2023/10/03 13:07:35;;;;;;;15.60;8.37;;;;;;;;;;4936066;29;20414;-71
2023/10/03 13:10:04;;;;;;;13.70;7.70;;;;;;;;;;4936287;29;20420;-73
2023/10/03 13:12:31;;;;;;;11.90;7.40;;;;;;;;;;4936240;29;20490;-73
2023/10/03 13:14:56;;;;;;;14.60;8.00;;;;;;;;;;4936125;29;20886;-72
2023/10/03 13:17:23;;;;;;;18.63;8.43;;;;;;;;;;4935966;29;20414;-73
2023/10/03 13:19:49;;;;;;;16.83;8.70;;;;;;;;;;4936062;29;20409;-73
2023/10/03 13:22:16;;;;;;;13.53;8.50;;;;;;;;;;4936065;29;20512;-72
2023/10/03 13:24:42;;;;;;;14.17;8.57;;;;;;;;;;4936106;29;20414;-73
2023/10/03 13:27:08;;;;;;;13.83;7.97;;;;;;;;;;4935602;29;20414;-72
2023/10/03 13:29:34;;;;;;;18.70;8.70;;;;;;;;;;4935739;29;20453;-73
2023/10/03 13:32:02;;;;;;;18.93;8.60;;;;;;;;;;4935768;29;20787;-73
2023/10/03 13:34:28;;;;;;;31.70;8.03;;;;;;;;;;4935716;29;20430;-73
2023/10/03 13:36:54;;;;;;;17.60;8.90;;;;;;;;;;4935498;29;20413;-72
2023/10/03 13:39:26;;;;;;;13.40;8.00;;;;;;;;;;4935626;29;20961;-72
2023/10/03 13:41:52;;;;;;;13.10;8.30;;;;;;;;;;4935635;29;20429;-72
2023/10/03 13:44:19;;;;;;;16.60;8.30;;;;;;;;;;4935674;29;20952;-71
2023/10/03 13:46:45;;;;;;;16.47;9.60;;;;;;;;;;4935210;29;20450;-72
2023/10/03 13:49:14;;;;;;;22.17;9.80;;;;;;;;;;4935512;29;20502;-72
2023/10/03 13:51:40;;;;;;;15.23;8.10;;;;;;;;;;4935482;29;20438;-73
2023/10/03 13:54:06;;;;;;;17.10;8.70;;;;;;;;;;4935413;29;20421;-73
2023/10/03 13:56:35;;;;;;;16.30;8.30;;;;;;;;;;4935186;29;20484;-72
2023/10/03 13:59:02;;;;;;;18.10;8.37;;;;;;;;;;4921949;29;20445;-72
2023/10/03 14:01:29;;;;;;;15.00;7.50;;;;;;;;;;4916066;29;20941;-73
2023/10/03 14:03:56;;;;;;;15.00;9.30;;;;;;;;;;4916446;29;20411;-72
2023/10/03 14:06:22;;;;;;;17.47;8.63;;;;;;;;;;4920611;29;20449;-72
2023/10/03 14:08:49;;;;;;;11.67;7.43;;;;;;;;;;4935291;29;20477;-72
2023/10/03 14:11:21;;;;;;;20.27;8.30;;;;;;;;;;4922743;29;20446;-72
2023/10/03 14:13:50;;;;;;;14.53;7.40;;;;;;;;;;4916175;29;20796;-71
2023/10/03 14:16:15;;;;;;;10.47;7.20;;;;;;;;;;4915757;29;20502;-72
2023/10/03 14:18:42;;;;;;;19.80;8.00;;;;;;;;;;4915918;29;20804;-72
2023/10/03 14:21:10;;;;;;;17.50;7.37;;;;;;;;;;4915799;29;20434;-72
2023/10/03 14:23:37;;;;;;;18.03;7.70;;;;;;;;;;4916138;29;20413;-71
2023/10/03 14:26:03;;;;;;;17.93;7.57;;;;;;;;;;4915763;29;20497;-72
2023/10/03 14:28:29;;;;;;;14.27;6.90;;;;;;;;;;4916067;29;20685;-72
2023/10/03 14:30:55;;;;;;;16.13;6.80;;;;;;;;;;4916094;29;20437;-74
2023/10/03 14:33:21;;;;;;;14.77;7.57;;;;;;;;;;4915909;29;20818;-73
2023/10/03 14:35:47;;;;;;;13.10;6.50;;;;;;;;;;4914209;29;20481;-73
2023/10/03 14:38:13;;;;;;;10.27;5.30;;;;;;;;;;4915775;29;20418;-72
2023/10/03 14:40:39;;;;;;;14.57;6.00;;;;;;;;;;4915746;29;20434;-72
2023/10/03 14:43:06;;;;;;;13.27;7.00;;;;;;;;;;4915850;29;20419;-72
2023/10/03 14:45:32;;;;;;;10.67;6.10;;;;;;;;;;4915732;29;20468;-71
2023/10/03 14:47:58;;;;;;;13.60;6.03;;;;;;;;;;4915156;29;20890;-71
2023/10/03 14:50:24;;;;;;;9.63;5.50;;;;;;;;;;4915502;29;20415;-71
2023/10/03 14:52:50;;;;;;;15.50;6.63;;;;;;;;;;4915589;29;20418;-73
2023/10/03 14:55:22;;;;;;;9.20;5.50;;;;;;;;;;4915276;29;20954;-72
2023/10/03 14:57:49;;;;;;;9.63;5.20;;;;;;;;;;4914720;29;20898;-72
2023/10/03 15:00:18;;;;;;;13.57;5.57;;;;;;;;;;4915318;29;20407;-72
2023/10/03 15:02:44;;;;;;;15.20;6.23;;;;;;;;;;4915358;29;20423;-72
2023/10/03 15:05:13;;;;;;;11.20;5.27;;;;;;;;;;4915303;29;20410;-72
2023/10/03 15:07:39;;;;;;;13.70;6.33;;;;;;;;;;4915407;29;20526;-73
2023/10/03 15:10:07;;;;;;;9.50;6.00;;;;;;;;;;4915640;29;20417;-72
2023/10/03 15:12:33;;;;;;;21.00;6.90;;;;;;;;;;4915187;29;20945;-72
2023/10/03 15:14:59;;;;;;;14.63;5.77;;;;;;;;;;4915682;29;20470;-72
2023/10/03 15:17:26;;;;;;;14.50;6.40;;;;;;;;;;4915107;29;20418;-73
2023/10/03 15:19:52;;;;;;;13.63;6.07;;;;;;;;;;4915561;29;20419;-73
2023/10/03 15:22:18;;;;;;;14.60;5.90;;;;;;;;;;4915234;29;20617;-73
2023/10/03 15:24:44;;;;;;;12.90;6.20;;;;;;;;;;4915372;29;20418;-74
2023/10/03 15:27:10;;;;;;;11.33;6.23;;;;;;;;;;4915020;29;20418;-72
2023/10/03 15:29:36;;;;;;;7.87;5.63;;;;;;;;;;4915254;29;20552;-72
2023/10/03 15:32:02;;;;;;;15.67;6.80;;;;;;;;;;4915261;29;20450;-72
2023/10/03 15:34:30;;;;;;;12.13;6.70;;;;;;;;;;4915282;29;20511;-72
2023/10/03 15:36:56;;;;;;;19.80;6.67;;;;;;;;;;4915397;29;20406;-73
2023/10/03 15:39:22;;;;;;;13.80;6.50;;;;;;;;;;4915444;29;20418;-73
2023/10/03 15:41:49;;;;;;;15.83;6.30;;;;;;;;;;4915095;29;20498;-74
2023/10/03 15:44:18;;;;;;;13.87;6.23;;;;;;;;;;4915401;29;20470;-73
2023/10/03 15:46:45;;;;;;;17.17;6.90;;;;;;;;;;4915081;29;20419;-73
2023/10/03 15:49:11;;;;;;;17.60;7.20;;;;;;;;;;4915202;29;20517;-73
2023/10/03 15:51:38;;;;;;;17.80;6.40;;;;;;;;;;4915434;29;20434;-73
2023/10/03 15:54:05;;;;;;;12.50;7.67;;;;;;;;;;4915190;29;20759;-73
2023/10/03 15:56:32;;;;;;;10.97;6.50;;;;;;;;;;4914881;29;20466;-73
2023/10/03 15:58:59;;;;;;;11.27;6.57;;;;;;;;;;4915119;29;20858;-74
2023/10/03 16:01:25;;;;;;;13.20;5.07;;;;;;;;;;4915007;29;20513;-73
2023/10/03 16:03:51;;;;;;;12.57;3.30;;;;;;;;;;4915101;29;20414;-74
2023/10/03 16:06:17;;;;;;;8.33;4.10;;;;;;;;;;4914862;29;20422;-73
2023/10/03 16:08:44;;;;;;;11.13;3.60;;;;;;;;;;4916244;29;20419;-73
2023/10/03 16:11:14;;;;;;;5.03;2.87;;;;;;;;;;4918525;29;21027;-73
2023/10/03 16:13:40;;;;;;;8.33;3.33;;;;;;;;;;4918665;29;20691;-73
2023/10/03 16:16:06;;;;;;;9.43;3.67;;;;;;;;;;4918483;29;20879;-74
2023/10/03 16:18:32;;;;;;;5.90;3.03;;;;;;;;;;4918561;29;20419;-73
2023/10/03 16:21:00;;;;;;;4.57;2.13;;;;;;;;;;4918329;29;20442;-73
2023/10/03 16:23:26;;;;;;;5.33;3.10;;;;;;;;;;4918322;29;20440;-73
2023/10/03 16:25:54;;;;;;;8.43;3.10;;;;;;;;;;4918206;29;20529;-73
2023/10/03 16:28:20;;;;;;;6.37;3.03;;;;;;;;;;4921163;29;20457;-73
2023/10/03 16:30:47;;;;;;;7.93;3.77;;;;;;;;;;4937052;29;20528;-73
2023/10/03 16:33:13;;;;;;;4.90;3.00;;;;;;;;;;4937245;29;20921;-74
2023/10/03 16:35:39;;;;;;;4.80;3.10;;;;;;;;;;4937179;29;21028;-73
2023/10/03 16:38:05;;;;;;;6.10;3.03;;;;;;;;;;4936933;29;20418;-73
2023/10/03 16:40:31;;;;;;;7.60;3.70;;;;;;;;;;4936952;29;20521;-74
2023/10/03 16:42:57;;;;;;;3.67;3.03;;;;;;;;;;4937138;29;20568;-73
2023/10/03 16:45:23;;;;;;;5.60;3.60;;;;;;;;;;4937256;29;20912;-74
2023/10/03 16:47:50;;;;;;;7.87;2.90;;;;;;;;;;4936894;29;20417;-73
2023/10/03 16:50:17;;;;;;;4.80;2.87;;;;;;;;;;4936812;29;20945;-73
2023/10/03 16:52:44;;;;;;;5.97;3.30;;;;;;;;;;4936794;29;20449;-73
2023/10/03 16:55:11;;;;;;;6.07;3.20;;;;;;;;;;4937277;29;20473;-73
2023/10/03 16:57:37;;;;;;;8.93;3.13;;;;;;;;;;4923837;29;20518;-73
2023/10/03 17:00:06;;;;;;;6.13;2.53;;;;;;;;;;4918249;29;20417;-74
2023/10/03 17:02:32;;;;;;;7.27;3.23;;;;;;;;;;4917835;29;20489;-73
2023/10/03 17:04:58;;;;;;;5.90;3.40;;;;;;;;;;4917932;29;20422;-73
2023/10/03 17:07:24;;;;;;;6.90;2.67;;;;;;;;;;4917402;29;20446;-73
2023/10/03 17:09:50;;;;;;;5.07;2.80;;;;;;;;;;4917573;29;20429;-73
2023/10/03 17:12:16;;;;;;;7.97;2.87;;;;;;;;;;4917694;29;20438;-74
2023/10/03 17:14:42;;;;;;;5.07;2.53;;;;;;;;;;4940912;29;20464;-71
2023/10/03 17:17:11;;;;;;;3.70;2.50;;;;;;;;;;4947216;29;20405;-74
2023/10/03 17:19:37;;;;;;;4.60;2.50;;;;;;;;;;4945607;29;20799;-75
2023/10/03 17:22:03;;;;;;;6.90;2.73;;;;;;;;;;4945910;29;20448;-73
2023/10/03 17:24:29;;;;;;;4.90;2.70;;;;;;;;;;4935125;29;20519;-73
2023/10/03 17:26:56;;;;;;;5.47;2.70;;;;;;;;;;4939027;28;20473;-73
2023/10/03 17:29:22;;;;;;;5.40;2.23;;;;;;;;;;4943063;29;20434;-72
2023/10/03 17:31:49;;;;;;;4.77;2.17;;;;;;;;;;4945192;29;20460;-71
2023/10/03 17:34:15;;;;;;;6.07;2.53;;;;;;;;;;4935599;28;20500;-72
2023/10/03 17:36:41;;;;;;;5.07;2.57;;;;;;;;;;4935433;29;20477;-72
2023/10/03 17:39:10;;;;;;;4.47;2.93;;;;;;;;;;4935609;29;20831;-73
2023/10/03 17:41:40;;;;;;;4.27;2.40;;;;;;;;;;4938196;29;20456;-71
2023/10/03 17:44:06;;;;;;;4.60;2.50;;;;;;;;;;4935806;29;20850;-74
2023/10/03 17:46:33;;;;;;;4.17;2.27;;;;;;;;;;4946697;29;20589;-72
2023/10/03 17:48:59;;;;;;;4.63;2.27;;;;;;;;;;4949155;29;20528;-71
2023/10/03 17:51:26;;;;;;;4.13;1.80;;;;;;;;;;4943388;29;20864;-73
2023/10/03 17:53:52;;;;;;;8.30;3.17;;;;;;;;;;4955168;29;20510;-74
2023/10/03 17:56:17;;;;;;;4.57;2.60;;;;;;;;;;4946846;29;20472;-73
2023/10/03 17:58:43;;;;;;;5.30;2.53;;;;;;;;;;4939722;29;20429;-73
2023/10/03 18:01:13;;;;;;;7.10;3.17;;;;;;;;;;4931357;29;20584;-72
2023/10/03 18:03:40;;;;;;;6.13;2.77;;;;;;;;;;4942971;29;20429;-73
2023/10/03 18:06:06;;;;;;;7.60;2.20;;;;;;;;;;4951311;29;20478;-74
2023/10/03 18:08:32;;;;;;;6.80;3.03;;;;;;;;;;4954698;29;20981;-74
2023/10/03 18:11:01;;;;;;;3.77;2.40;;;;;;;;;;4954728;29;20900;-72
2023/10/03 18:13:29;;;;;;;7.37;3.50;;;;;;;;;;4954717;28;20436;-73
2023/10/03 18:15:55;;;;;;;3.83;2.60;;;;;;;;;;4936206;28;20484;-73
2023/10/03 18:18:21;;;;;;;7.30;3.30;;;;;;;;;;4934841;29;20925;-72
2023/10/03 18:20:47;;;;;;;6.90;3.07;;;;;;;;;;4934780;29;20536;-73
2023/10/03 18:23:13;;;;;;;6.03;2.77;;;;;;;;;;4935080;29;20456;-71
2023/10/03 18:25:39;;;;;;;6.70;3.13;;;;;;;;;;4934835;29;20429;-71
2023/10/03 18:28:08;;;;;;;6.67;3.30;;;;;;;;;;4934893;29;20422;-69
2023/10/03 18:30:35;;;;;;;5.63;3.20;;;;;;;;;;4935529;29;20520;-68
2023/10/03 18:33:02;;;;;;;5.90;3.37;;;;;;;;;;4941087;29;20437;-69
2023/10/03 18:35:28;;;;;;;5.73;2.40;;;;;;;;;;4953450;29;20476;-69
2023/10/03 18:37:54;;;;;;;12.93;4.30;;;;;;;;;;4953883;29;20821;-67
2023/10/03 18:40:21;;;;;;;13.43;4.80;;;;;;;;;;4938541;28;20441;-68
2023/10/03 18:42:48;;;;;;;9.17;4.20;;;;;;;;;;4939613;28;20429;-67
2023/10/03 18:45:15;;;;;;;7.13;3.10;;;;;;;;;;4934353;29;20565;-67
2023/10/03 18:47:42;;;;;;;6.27;3.00;;;;;;;;;;4934380;29;20957;-66
2023/10/03 18:50:08;;;;;;;6.07;3.23;;;;;;;;;;4941522;29;20453;-67
2023/10/03 18:52:36;;;;;;;7.70;3.07;;;;;;;;;;4954082;28;20507;-67
2023/10/03 18:55:03;;;;;;;8.43;3.40;;;;;;;;;;4952003;28;20967;-67
2023/10/03 18:57:29;;;;;;;5.47;3.20;;;;;;;;;;4944062;29;20928;-68
2023/10/03 18:59:55;;;;;;;7.03;2.90;;;;;;;;;;4953973;28;20464;-69
2023/10/03 19:02:21;;;;;;;7.50;2.80;;;;;;;;;;4947497;29;20885;-68
2023/10/03 19:04:48;;;;;;;7.90;3.20;;;;;;;;;;4933587;29;20492;-68
2023/10/03 19:07:14;;;;;;;6.23;3.13;;;;;;;;;;4934955;29;20414;-69
2023/10/03 19:09:41;;;;;;;8.30;3.10;;;;;;;;;;4945730;29;20979;-69
2023/10/03 19:12:07;;;;;;;7.13;2.60;;;;;;;;;;4948816;28;20449;-69
2023/10/03 19:14:34;;;;;;;6.17;3.00;;;;;;;;;;4942409;29;20461;-69
2023/10/03 19:17:00;;;;;;;6.27;2.60;;;;;;;;;;4940272;29;20454;-69
2023/10/03 19:19:27;;;;;;;5.53;2.50;;;;;;;;;;4941730;29;20452;-69
2023/10/03 19:21:53;;;;;;;3.93;2.70;;;;;;;;;;4942373;29;20446;-68
2023/10/03 19:24:19;;;;;;;6.20;2.97;;;;;;;;;;4950378;29;20447;-69
2023/10/03 19:26:45;;;;;;;5.87;3.13;;;;;;;;;;4933406;29;20929;-69
2023/10/03 19:29:11;;;;;;;6.77;3.20;;;;;;;;;;4933933;29;20479;-69
2023/10/03 19:31:37;;;;;;;8.97;3.63;;;;;;;;;;4932851;29;20465;-69
2023/10/03 19:34:03;;;;;;;4.00;2.80;;;;;;;;;;4934145;29;20825;-69
2023/10/03 19:36:29;;;;;;;6.87;3.33;;;;;;;;;;4944270;29;20519;-69